Terminal Aerodrome Forecast
Issued by NWS

Current Version | Previous Version | Graphics & Text | Print | Product List | Glossary On
Versions: 1 2 3 4 5 6 7 8 9 10 11 12 13 14 15 16 17 18 19 20 21 22 23 24 25
156
FTUS41 KPBZ 300113 AAA
TAFHLG
TAF AMD
KHLG 300113Z 3001/3024 04010KT P6SM SCT008
      TEMPO 3002/3006 BKN008
     FM300800 VRB05KT P6SM BKN050
     FM301400 20010G20KT P6SM SCT040=

USA.gov is the U.S. government's official web portal to all federal, state and local government web resources and services.